createdAt,value
2022-10-15T04:00:22.596Z,5.90
2022-10-15T04:02:55.640Z,8.27
2022-10-15T04:05:27.309Z,6.87
2022-10-15T04:07:58.984Z,6.93
2022-10-15T04:10:30.828Z,7.73
2022-10-15T04:13:02.484Z,9.03
2022-10-15T04:15:34.117Z,7.80
2022-10-15T04:18:07.133Z,7.10
2022-10-15T04:20:38.805Z,6.43
2022-10-15T04:23:10.490Z,6.27
2022-10-15T04:25:42.129Z,6.80
2022-10-15T04:28:13.776Z,9.23
2022-10-15T04:30:45.418Z,6.90
2022-10-15T04:33:18.384Z,6.00
2022-10-15T04:35:58.800Z,6.13
2022-10-15T04:38:30.467Z,5.77
2022-10-15T04:41:02.924Z,6.40
2022-10-15T04:43:34.649Z,6.53
2022-10-15T04:46:06.877Z,4.80
2022-10-15T04:48:42.864Z,8.20
2022-10-15T04:51:17.692Z,6.13
2022-10-15T04:53:49.351Z,6.57
2022-10-15T04:56:21.248Z,7.47
2022-10-15T04:58:52.888Z,8.00
2022-10-15T05:01:24.517Z,8.47
2022-10-15T05:03:57.513Z,6.43
2022-10-15T05:06:29.145Z,7.00
2022-10-15T05:09:00.776Z,7.53
2022-10-15T05:11:34.721Z,7.87
2022-10-15T05:14:06.454Z,7.07
2022-10-15T05:16:38.077Z,6.57
2022-10-15T05:19:11.776Z,7.67
2022-10-15T05:21:43.496Z,7.47
2022-10-15T05:24:15.392Z,9.37
2022-10-15T05:26:47.019Z,6.83
2022-10-15T05:29:18.782Z,6.43
2022-10-15T05:31:50.478Z,7.63
2022-10-15T05:34:23.479Z,8.87
2022-10-15T05:36:55.114Z,8.87
2022-10-15T05:39:26.779Z,7.63
2022-10-15T05:41:58.402Z,9.23
2022-10-15T05:44:30.032Z,8.37
2022-10-15T05:47:01.656Z,8.27
2022-10-15T05:49:34.647Z,8.77
2022-10-15T05:52:06.257Z,7.73
2022-10-15T05:54:37.911Z,7.77
2022-10-15T05:57:09.588Z,7.97
2022-10-15T05:59:41.230Z,8.50
2022-10-15T06:02:12.895Z,10.47
2022-10-15T06:04:46.884Z,11.50
2022-10-15T06:07:18.516Z,9.97
2022-10-15T06:09:50.172Z,10.10
2022-10-15T06:12:21.786Z,9.07
2022-10-15T06:14:53.435Z,11.67
2022-10-15T06:17:25.294Z,8.83
2022-10-15T06:19:58.702Z,10.30
2022-10-15T06:22:30.577Z,8.57
2022-10-15T06:25:02.245Z,7.33
2022-10-15T06:27:33.896Z,6.73
2022-10-15T06:30:06.658Z,5.47
2022-10-15T06:32:38.303Z,8.20
2022-10-15T06:35:11.267Z,5.97
2022-10-15T06:37:42.946Z,6.27
2022-10-15T06:40:14.969Z,6.90
2022-10-15T06:42:46.601Z,9.90
2022-10-15T06:45:21.016Z,8.10
2022-10-15T06:47:53.621Z,9.27
2022-10-15T06:50:26.758Z,6.10
2022-10-15T06:55:31.077Z,5.30
2022-10-15T06:58:02.737Z,4.90
2022-10-15T07:03:07.155Z,6.30
2022-10-15T07:05:40.133Z,8.20
2022-10-15T07:08:16.789Z,6.10
2022-10-15T07:10:50.914Z,6.70
2022-10-15T07:13:22.557Z,6.77
2022-10-15T07:15:54.208Z,4.17
2022-10-15T07:18:25.847Z,4.47
2022-10-15T07:20:58.905Z,5.40
2022-10-15T07:23:30.577Z,6.10
2022-10-15T07:26:02.251Z,4.10
2022-10-15T07:28:33.950Z,7.03
2022-10-15T07:31:06.606Z,2.83
2022-10-15T07:33:38.260Z,4.43
2022-10-15T07:36:11.444Z,5.27
2022-10-15T07:38:43.368Z,4.50
2022-10-15T07:41:15.114Z,2.83
2022-10-15T07:43:46.754Z,3.77
2022-10-15T07:46:18.409Z,2.67
2022-10-15T07:48:50.030Z,2.37
2022-10-15T07:51:22.998Z,2.80
2022-10-15T07:53:55.137Z,1.50
2022-10-15T07:56:26.813Z,2.17
2022-10-15T07:58:58.479Z,2.43
2022-10-15T08:01:30.112Z,3.42
2022-10-15T08:04:01.759Z,2.25
2022-10-15T08:06:34.735Z,3.05
2022-10-15T08:09:06.400Z,5.20
2022-10-15T08:11:38.341Z,2.85
2022-10-15T08:14:09.986Z,3.55
2022-10-15T08:16:41.603Z,3.50
2022-10-15T08:19:13.280Z,2.28
2022-10-15T08:21:47.458Z,1.87
2022-10-15T08:24:19.537Z,2.38
2022-10-15T08:26:51.253Z,3.88
2022-10-15T08:29:22.883Z,2.20
2022-10-15T08:31:54.502Z,2.15
2022-10-15T08:34:26.380Z,1.93
2022-10-15T08:36:59.355Z,2.60
2022-10-15T08:39:31.093Z,1.70
2022-10-15T08:42:04.143Z,2.00
2022-10-15T08:44:43.619Z,2.80
2022-10-15T08:47:23.532Z,2.67
2022-10-15T08:49:56.030Z,3.08
2022-10-15T08:52:41.824Z,2.85
2022-10-15T08:55:14.862Z,5.28
2022-10-15T08:57:48.561Z,4.03
2022-10-15T09:00:21.139Z,2.63
2022-10-15T09:02:57.439Z,2.42
2022-10-15T09:05:33.197Z,3.92
2022-10-15T09:08:12.419Z,3.10
2022-10-15T09:10:46.199Z,3.40
2022-10-15T09:13:22.133Z,3.58
2022-10-15T09:15:56.281Z,5.88
2022-10-15T09:18:28.707Z,3.42
2022-10-15T09:21:00.486Z,5.68
2022-10-15T09:23:33.546Z,3.17
2022-10-15T09:26:08.237Z,2.35
2022-10-15T09:28:42.833Z,2.00
2022-10-15T09:31:16.654Z,2.38
2022-10-15T09:33:50.319Z,2.78
2022-10-15T09:36:32.556Z,3.85
2022-10-15T09:39:16.443Z,4.07
2022-10-15T09:41:51.230Z,2.75
2022-10-15T09:44:23.491Z,2.03
2022-10-15T09:46:55.114Z,1.73
2022-10-15T09:49:29.321Z,1.50
2022-10-15T09:52:07.239Z,1.60
2022-10-15T09:54:43.269Z,3.05
2022-10-15T09:57:14.924Z,4.32
2022-10-15T09:59:53.354Z,3.28
2022-10-15T10:02:25.591Z,2.83
2022-10-15T10:04:57.402Z,1.42
2022-10-15T10:07:30.669Z,1.77
2022-10-15T10:10:04.872Z,2.25
2022-10-15T10:12:36.657Z,1.55
2022-10-15T10:15:23.971Z,1.38
2022-10-15T10:17:55.990Z,1.20
2022-10-15T10:20:27.793Z,1.30
2022-10-15T10:23:00.401Z,2.80
2022-10-15T10:25:35.345Z,4.05
2022-10-15T10:28:19.161Z,2.95
2022-10-15T10:30:53.742Z,1.95
2022-10-15T10:33:26.679Z,3.13
2022-10-15T10:35:58.374Z,1.98
2022-10-15T10:38:31.241Z,1.70
2022-10-15T10:41:05.173Z,3.58
2022-10-15T10:43:39.248Z,1.27
2022-10-15T10:46:17.439Z,1.40
2022-10-15T10:48:49.581Z,2.58
2022-10-15T10:51:22.453Z,0.90
2022-10-15T10:53:55.973Z,1.23
2022-10-15T10:56:31.028Z,1.45
2022-10-15T10:59:09.720Z,3.95
2022-10-15T11:01:41.351Z,1.17
2022-10-15T11:04:15.566Z,1.98
2022-10-15T11:06:55.988Z,1.95
2022-10-15T11:09:42.123Z,2.80
2022-10-15T11:12:40.249Z,2.00
2022-10-15T11:15:20.303Z,4.75
2022-10-15T11:17:54.783Z,2.28
2022-10-15T11:20:48.295Z,1.60
2022-10-15T11:23:28.518Z,1.75
2022-10-15T11:26:03.147Z,3.05
2022-10-15T11:28:44.816Z,2.75
2022-10-15T11:31:20.242Z,1.15
2022-10-15T11:34:02.965Z,1.75
2022-10-15T11:36:44.447Z,2.65
2022-10-15T11:39:37.977Z,0.93
2022-10-15T11:42:13.208Z,1.00
2022-10-15T11:44:56.257Z,1.65
2022-10-15T11:47:36.496Z,2.70
2022-10-15T11:50:16.198Z,2.45
2022-10-15T11:53:03.740Z,1.08
2022-10-15T11:55:37.369Z,1.27
2022-10-15T11:58:12.691Z,1.45
2022-10-15T12:00:46.708Z,1.63
2022-10-15T12:03:19.462Z,2.25
2022-10-15T12:05:52.864Z,1.95
2022-10-15T12:08:25.182Z,2.97
2022-10-15T12:11:05.599Z,3.50
2022-10-15T12:13:40.153Z,1.15
2022-10-15T12:16:24.439Z,1.23
2022-10-15T12:19:00.424Z,1.55
2022-10-15T12:21:34.839Z,1.50
2022-10-15T12:24:26.962Z,1.02
2022-10-15T12:27:14.349Z,1.15
2022-10-15T12:29:46.089Z,1.20
2022-10-15T12:32:22.147Z,1.70
2022-10-15T12:34:54.535Z,1.63
2022-10-15T12:37:27.259Z,1.00
2022-10-15T12:40:00.104Z,1.15
2022-10-15T12:42:34.627Z,2.30
2022-10-15T12:45:07.489Z,3.63
2022-10-15T12:47:46.377Z,1.50
2022-10-15T12:50:19.256Z,7.43
2022-10-15T12:52:53.623Z,1.77
2022-10-15T12:55:28.323Z,1.10
2022-10-15T12:58:03.413Z,4.20
2022-10-15T13:00:42.257Z,2.55
2022-10-15T13:03:48.145Z,2.03
2022-10-15T13:06:30.453Z,1.67
2022-10-15T13:09:06.526Z,2.22
2022-10-15T13:11:40.828Z,3.17
2022-10-15T13:14:18.824Z,1.00
2022-10-15T13:16:50.470Z,1.98
2022-10-15T13:19:23.597Z,0.77
2022-10-15T13:21:56.624Z,1.50
2022-10-15T13:24:29.103Z,0.75
2022-10-15T13:27:00.840Z,1.90
2022-10-15T13:29:33.840Z,1.23
2022-10-15T13:32:08.165Z,3.10
2022-10-15T13:34:40.482Z,2.22
2022-10-15T13:37:15.449Z,3.15
2022-10-15T13:39:49.753Z,1.55
2022-10-15T13:42:22.444Z,1.25
2022-10-15T13:45:00.024Z,1.55
2022-10-15T13:47:32.557Z,1.95
2022-10-15T13:50:14.442Z,2.88
2022-10-15T13:52:47.891Z,1.05
2022-10-15T13:55:20.917Z,0.82
2022-10-15T13:57:54.671Z,1.45
2022-10-15T14:00:29.132Z,2.10
2022-10-15T14:03:07.967Z,0.75
2022-10-15T14:05:39.614Z,0.70
2022-10-15T14:08:19.373Z,1.08
2022-10-15T14:10:52.136Z,0.80
2022-10-15T14:13:23.834Z,0.80
2022-10-15T14:16:12.344Z,1.48
2022-10-15T14:18:48.255Z,0.80
2022-10-15T14:21:22.355Z,0.85
2022-10-15T14:24:00.308Z,0.93
2022-10-15T14:26:32.251Z,1.05
2022-10-15T14:29:03.943Z,1.02
2022-10-15T14:31:39.862Z,1.05
2022-10-15T14:34:27.084Z,1.15
2022-10-15T14:36:58.700Z,0.65
2022-10-15T14:39:31.281Z,1.02
2022-10-15T14:42:03.682Z,1.15
2022-10-15T14:44:42.307Z,0.70
2022-10-15T14:47:19.739Z,1.70
2022-10-15T14:49:53.146Z,2.47
2022-10-15T14:52:24.836Z,2.20
2022-10-15T14:55:01.252Z,2.10
2022-10-15T14:57:35.559Z,2.80
2022-10-15T15:00:14.266Z,1.20
2022-10-15T15:02:47.344Z,1.73
2022-10-15T15:05:21.087Z,11.55
2022-10-15T15:07:53.004Z,8.18
2022-10-15T15:10:24.994Z,3.17
2022-10-15T15:12:56.758Z,1.45
2022-10-15T15:15:28.405Z,1.85
2022-10-15T15:18:01.403Z,1.92
2022-10-15T15:20:33.052Z,1.15
2022-10-15T15:23:04.690Z,8.95
2022-10-15T15:25:36.332Z,2.03
2022-10-15T15:28:11.465Z,1.35
2022-10-15T15:30:43.783Z,12.02
2022-10-15T15:33:17.162Z,5.05
2022-10-15T15:35:49.202Z,3.17
2022-10-15T15:38:21.635Z,2.13
2022-10-15T15:40:53.374Z,1.58
2022-10-15T15:43:25.004Z,2.88
2022-10-15T15:45:56.648Z,1.88
2022-10-15T15:48:29.608Z,2.47
2022-10-15T15:51:02.536Z,2.58
2022-10-15T15:53:34.158Z,4.10
2022-10-15T15:56:06.400Z,15.07
2022-10-15T15:58:38.047Z,7.50
2022-10-15T16:01:09.721Z,3.88
2022-10-15T16:03:42.748Z,6.97
2022-10-15T16:06:14.397Z,4.80
2022-10-15T16:08:46.029Z,4.32
2022-10-15T16:11:17.685Z,3.70
2022-10-15T16:13:49.351Z,4.72
2022-10-15T16:16:21.062Z,10.90
2022-10-15T16:18:54.071Z,8.07
2022-10-15T16:21:25.867Z,6.18
2022-10-15T16:23:57.642Z,5.27
2022-10-15T16:26:29.328Z,5.90
2022-10-15T16:29:00.977Z,3.40
2022-10-15T16:31:33.042Z,3.03
2022-10-15T16:34:06.195Z,3.90
2022-10-15T16:36:37.853Z,2.40
2022-10-15T16:39:09.895Z,1.98
2022-10-15T16:41:41.547Z,2.40
2022-10-15T16:44:13.199Z,3.15
2022-10-15T16:46:47.316Z,4.43
2022-10-15T16:49:20.319Z,3.10
2022-10-15T16:51:51.973Z,3.23
2022-10-15T16:54:23.653Z,3.00
2022-10-15T16:56:55.299Z,4.72
2022-10-15T16:59:27.141Z,3.53
2022-10-15T17:01:58.908Z,2.97
2022-10-15T17:04:32.006Z,2.00
2022-10-15T17:07:03.697Z,3.03
2022-10-15T17:09:35.697Z,3.17
2022-10-15T17:12:07.543Z,4.37
2022-10-15T17:14:39.218Z,5.50
2022-10-15T17:17:10.875Z,2.73
2022-10-15T17:19:43.875Z,3.40
2022-10-15T17:22:15.555Z,3.13
2022-10-15T17:24:48.943Z,1.97
2022-10-15T17:27:20.613Z,3.45
2022-10-15T17:29:52.315Z,3.97
2022-10-15T17:32:24.362Z,2.67
2022-10-15T17:35:01.329Z,5.03
2022-10-15T17:40:12.489Z,3.23
2022-10-15T17:42:44.217Z,7.43
2022-10-15T17:45:15.920Z,3.57
2022-10-15T17:47:47.575Z,4.03
2022-10-15T17:50:20.645Z,2.93
2022-10-15T17:52:52.353Z,2.90
2022-10-15T17:55:24.028Z,5.33
2022-10-15T17:57:55.702Z,3.77
2022-10-15T18:00:27.388Z,5.47
2022-10-15T18:02:59.069Z,3.40
2022-10-15T18:05:32.756Z,4.53
2022-10-15T18:08:04.576Z,3.45
2022-10-15T18:10:36.577Z,2.80
2022-10-15T18:13:08.336Z,5.47
2022-10-15T18:15:44.402Z,5.03
2022-10-15T18:18:16.129Z,3.50
2022-10-15T18:20:49.231Z,5.53
2022-10-15T18:23:21.104Z,5.73
2022-10-15T18:26:00.577Z,5.73
2022-10-15T18:28:32.332Z,7.73
2022-10-15T18:31:04.580Z,5.77
2022-10-15T18:33:37.040Z,5.93
2022-10-15T18:36:11.076Z,6.17
2022-10-15T18:38:42.767Z,7.43
2022-10-15T18:41:14.925Z,4.47
2022-10-15T18:43:49.983Z,5.33
2022-10-15T18:46:21.856Z,5.70
2022-10-15T18:48:53.794Z,4.00
2022-10-15T18:51:26.903Z,6.97
2022-10-15T18:53:58.914Z,6.83
2022-10-15T18:56:30.689Z,4.23
2022-10-15T18:59:02.351Z,8.10
2022-10-15T19:01:35.341Z,5.27
2022-10-15T19:04:07.858Z,6.37
2022-10-15T19:06:41.502Z,7.63
2022-10-15T19:09:14.490Z,3.43
2022-10-15T19:11:47.300Z,4.47
2022-10-15T19:14:19.158Z,6.70
2022-10-15T19:16:51.047Z,3.83
2022-10-15T19:19:23.594Z,4.33
2022-10-15T19:21:57.076Z,5.03
2022-10-15T19:24:28.851Z,4.43
2022-10-15T19:27:00.723Z,3.60
2022-10-15T19:29:35.138Z,6.80
2022-10-15T19:32:07.096Z,5.67
2022-10-15T19:34:38.846Z,5.23
2022-10-15T19:37:11.891Z,5.90
2022-10-15T19:39:43.628Z,5.70
2022-10-15T19:42:15.330Z,4.93
2022-10-15T19:44:48.304Z,5.93
2022-10-15T19:47:19.985Z,6.73
2022-10-15T19:49:52.194Z,7.10
2022-10-15T19:52:25.313Z,4.27
2022-10-15T19:54:56.993Z,5.57
2022-10-15T19:57:28.784Z,4.63
2022-10-15T20:00:00.602Z,7.17
2022-10-15T20:02:32.287Z,8.20
2022-10-15T20:05:04.676Z,6.37
2022-10-15T20:07:37.730Z,10.60
2022-10-15T20:10:09.835Z,6.00
2022-10-15T20:12:41.558Z,8.60
2022-10-15T20:15:13.289Z,9.07
2022-10-15T20:17:44.982Z,8.60
2022-10-15T20:20:16.691Z,4.97
2022-10-15T20:22:49.751Z,8.33
2022-10-15T20:25:21.431Z,8.00
2022-10-15T20:27:53.138Z,8.70
2022-10-15T20:30:24.966Z,5.23
2022-10-15T20:32:56.814Z,6.93
2022-10-15T20:35:28.457Z,6.33
2022-10-15T20:38:01.560Z,6.80
2022-10-15T20:40:33.601Z,5.20
2022-10-15T20:43:05.257Z,9.30
2022-10-15T20:45:40.456Z,6.30
2022-10-15T20:48:15.608Z,5.83
2022-10-15T20:50:47.309Z,10.07
2022-10-15T20:53:20.505Z,9.17
2022-10-15T20:55:52.179Z,6.53
2022-10-15T20:58:24.533Z,6.13
2022-10-15T21:00:56.177Z,6.00
2022-10-15T21:03:27.884Z,4.37
2022-10-15T21:05:59.515Z,8.90
2022-10-15T21:08:32.543Z,6.30
2022-10-15T21:11:04.787Z,6.40
2022-10-15T21:13:36.495Z,5.60
2022-10-15T21:16:08.744Z,11.50
2022-10-15T21:18:40.452Z,8.53
2022-10-15T21:21:13.189Z,8.13
2022-10-15T21:23:46.196Z,8.87
2022-10-15T21:26:18.198Z,9.30
2022-10-15T21:28:53.926Z,8.73
2022-10-15T21:31:26.096Z,8.53
2022-10-15T21:33:57.789Z,8.77
2022-10-15T21:36:29.477Z,5.70
2022-10-15T21:39:03.816Z,11.20
2022-10-15T21:41:36.488Z,7.57
2022-10-15T21:44:08.430Z,8.07
2022-10-15T21:46:40.351Z,8.80
2022-10-15T21:49:12.051Z,9.83
2022-10-15T21:51:43.690Z,11.20
2022-10-15T21:54:16.680Z,8.33
2022-10-15T21:56:48.352Z,7.23
2022-10-15T21:59:20.003Z,8.00
